sensor_id;sensor_type;location;lat;lon;timestamp;pressure;altitude;pressure_sealevel;temperature;humidity
64644;BME280;51056;50.330;7.914;2022-08-02T00:00:14;100932.97;;;17.04;76.16
64644;BME280;51056;50.330;7.914;2022-08-02T00:03:17;100930.75;;;17.22;75.05
64644;BME280;51056;50.330;7.914;2022-08-02T00:06:21;100932.19;;;17.15;76.13
64644;BME280;51056;50.330;7.914;2022-08-02T00:09:24;100926.59;;;17.07;75.90
64644;BME280;51056;50.330;7.914;2022-08-02T00:12:27;100935.09;;;16.99;75.89
64644;BME280;51056;50.330;7.914;2022-08-02T00:15:31;100936.59;;;16.90;76.15
64644;BME280;51056;50.330;7.914;2022-08-02T00:18:34;100927.50;;;16.94;76.09
64644;BME280;51056;50.330;7.914;2022-08-02T00:21:37;100934.69;;;16.92;75.96
64644;BME280;51056;50.330;7.914;2022-08-02T00:24:41;100929.84;;;16.86;76.08
64644;BME280;51056;50.330;7.914;2022-08-02T00:27:44;100929.41;;;16.92;76.02
64644;BME280;51056;50.330;7.914;2022-08-02T00:30:47;100929.50;;;16.91;75.93
64644;BME280;51056;50.330;7.914;2022-08-02T00:33:51;100928.78;;;16.89;76.07
64644;BME280;51056;50.330;7.914;2022-08-02T00:37:04;100934.06;;;16.89;76.17
64644;BME280;51056;50.330;7.914;2022-08-02T00:40:09;100937.69;;;16.75;77.05
64644;BME280;51056;50.330;7.914;2022-08-02T00:43:12;100944.88;;;16.73;76.99
64644;BME280;51056;50.330;7.914;2022-08-02T00:46:17;100939.06;;;16.68;77.15
64644;BME280;51056;50.330;7.914;2022-08-02T00:49:21;100938.00;;;16.70;76.92
64644;BME280;51056;50.330;7.914;2022-08-02T00:52:24;100939.91;;;16.56;77.39
64644;BME280;51056;50.330;7.914;2022-08-02T00:55:28;100941.41;;;16.60;77.17
64644;BME280;51056;50.330;7.914;2022-08-02T00:58:31;100944.06;;;16.60;77.17
64644;BME280;51056;50.330;7.914;2022-08-02T01:01:35;100944.28;;;16.57;77.03
64644;BME280;51056;50.330;7.914;2022-08-02T01:04:41;100953.47;;;16.38;77.52
64644;BME280;51056;50.330;7.914;2022-08-02T01:07:45;100935.63;;;16.42;77.57
64644;BME280;51056;50.330;7.914;2022-08-02T01:10:48;100932.78;;;16.32;77.62
64644;BME280;51056;50.330;7.914;2022-08-02T01:13:52;100940.16;;;16.27;77.47
64644;BME280;51056;50.330;7.914;2022-08-02T01:17:19;100935.00;;;16.38;77.37
64644;BME280;51056;50.330;7.914;2022-08-02T01:27:07;100934.59;;;16.19;78.20
64644;BME280;51056;50.330;7.914;2022-08-02T01:30:15;100940.28;;;16.13;78.31
64644;BME280;51056;50.330;7.914;2022-08-02T01:33:20;100940.09;;;16.16;78.72
64644;BME280;51056;50.330;7.914;2022-08-02T01:36:27;100938.91;;;16.20;78.61
64644;BME280;51056;50.330;7.914;2022-08-02T01:39:35;100933.13;;;16.02;79.10
64644;BME280;51056;50.330;7.914;2022-08-02T01:42:46;100931.22;;;16.04;78.75
64644;BME280;51056;50.330;7.914;2022-08-02T01:45:53;100936.91;;;16.11;78.63
64644;BME280;51056;50.330;7.914;2022-08-02T01:49:01;100937.31;;;16.04;78.75
64644;BME280;51056;50.330;7.914;2022-08-02T01:52:08;100939.25;;;16.15;77.90
64644;BME280;51056;50.330;7.914;2022-08-02T01:55:26;100938.19;;;16.05;78.32
64644;BME280;51056;50.330;7.914;2022-08-02T01:58:34;100942.59;;;16.04;78.52
64644;BME280;51056;50.330;7.914;2022-08-02T02:01:39;100933.84;;;15.91;79.07
64644;BME280;51056;50.330;7.914;2022-08-02T02:04:44;100933.75;;;15.80;79.39
64644;BME280;51056;50.330;7.914;2022-08-02T02:07:52;100942.16;;;15.85;79.23
64644;BME280;51056;50.330;7.914;2022-08-02T02:10:58;100941.75;;;15.91;79.07
64644;BME280;51056;50.330;7.914;2022-08-02T02:14:04;100949.78;;;15.77;79.44
64644;BME280;51056;50.330;7.914;2022-08-02T02:17:11;100949.56;;;15.80;79.42
64644;BME280;51056;50.330;7.914;2022-08-02T02:20:17;100950.25;;;15.69;79.68
64644;BME280;51056;50.330;7.914;2022-08-02T02:23:22;100946.59;;;15.72;79.38
64644;BME280;51056;50.330;7.914;2022-08-02T02:26:26;100949.16;;;15.59;80.03
64644;BME280;51056;50.330;7.914;2022-08-02T02:29:34;100943.81;;;15.61;80.01
64644;BME280;51056;50.330;7.914;2022-08-02T02:32:39;100949.28;;;15.57;80.41
64644;BME280;51056;50.330;7.914;2022-08-02T02:35:45;100940.41;;;15.58;79.93
64644;BME280;51056;50.330;7.914;2022-08-02T02:38:50;100943.06;;;15.58;79.62
64644;BME280;51056;50.330;7.914;2022-08-02T02:41:57;100940.22;;;15.62;79.83
64644;BME280;51056;50.330;7.914;2022-08-02T02:45:04;100939.97;;;15.52;80.16
64644;BME280;51056;50.330;7.914;2022-08-02T02:48:08;100938.53;;;15.61;79.66
64644;BME280;51056;50.330;7.914;2022-08-02T02:51:12;100926.06;;;15.63;79.63
64644;BME280;51056;50.330;7.914;2022-08-02T02:54:17;100925.69;;;15.69;79.29
64644;BME280;51056;50.330;7.914;2022-08-02T02:57:21;100935.16;;;15.58;79.96
64644;BME280;51056;50.330;7.914;2022-08-02T03:00:25;100940.06;;;15.50;80.35
64644;BME280;51056;50.330;7.914;2022-08-02T03:03:48;100944.22;;;15.54;79.84
64644;BME280;51056;50.330;7.914;2022-08-02T03:06:51;100944.81;;;15.45;79.82
64644;BME280;51056;50.330;7.914;2022-08-02T03:09:55;100940.41;;;15.58;79.20
64644;BME280;51056;50.330;7.914;2022-08-02T03:12:59;100936.34;;;15.40;79.83
64644;BME280;51056;50.330;7.914;2022-08-02T03:16:03;100955.72;;;15.26;80.09
64644;BME280;51056;50.330;7.914;2022-08-02T03:19:06;100947.88;;;15.25;80.25
64644;BME280;51056;50.330;7.914;2022-08-02T03:22:10;100944.81;;;15.18;80.34
64644;BME280;51056;50.330;7.914;2022-08-02T03:25:14;100940.81;;;15.13;80.46
64644;BME280;51056;50.330;7.914;2022-08-02T03:28:20;100941.22;;;15.06;80.59
64644;BME280;51056;50.330;7.914;2022-08-02T03:31:25;100935.22;;;15.17;80.02
64644;BME280;51056;50.330;7.914;2022-08-02T03:34:29;100931.25;;;15.24;79.66
64644;BME280;51056;50.330;7.914;2022-08-02T03:37:32;100932.09;;;15.25;79.53
64644;BME280;51056;50.330;7.914;2022-08-02T03:40:38;100929.00;;;15.18;79.33
64644;BME280;51056;50.330;7.914;2022-08-02T03:43:45;100931.16;;;14.99;80.09
64644;BME280;51056;50.330;7.914;2022-08-02T03:46:50;100930.22;;;15.00;80.34
64644;BME280;51056;50.330;7.914;2022-08-02T03:49:54;100925.22;;;14.95;79.97
64644;BME280;51056;50.330;7.914;2022-08-02T03:52:58;100930.25;;;14.85;80.33
64644;BME280;51056;50.330;7.914;2022-08-02T03:56:03;100926.53;;;15.02;79.88
64644;BME280;51056;50.330;7.914;2022-08-02T03:59:11;100917.53;;;14.92;79.96
64644;BME280;51056;50.330;7.914;2022-08-02T04:02:15;100929.59;;;14.82;80.22
64644;BME280;51056;50.330;7.914;2022-08-02T04:05:19;100932.22;;;14.82;80.28
64644;BME280;51056;50.330;7.914;2022-08-02T04:08:22;100937.06;;;15.02;79.43
64644;BME280;51056;50.330;7.914;2022-08-02T04:11:25;100933.03;;;15.24;78.20
64644;BME280;51056;50.330;7.914;2022-08-02T04:14:36;100936.97;;;15.31;77.12
64644;BME280;51056;50.330;7.914;2022-08-02T04:17:42;100929.44;;;15.52;75.93
64644;BME280;51056;50.330;7.914;2022-08-02T04:20:48;100932.78;;;15.41;76.82
64644;BME280;51056;50.330;7.914;2022-08-02T04:23:54;100940.13;;;15.09;78.78
64644;BME280;51056;50.330;7.914;2022-08-02T04:26:59;100940.75;;;15.27;78.36
64644;BME280;51056;50.330;7.914;2022-08-02T04:30:05;100949.13;;;15.46;76.99
64644;BME280;51056;50.330;7.914;2022-08-02T04:33:10;100950.72;;;15.22;78.03
64644;BME280;51056;50.330;7.914;2022-08-02T04:36:14;100952.97;;;15.01;79.46
64644;BME280;51056;50.330;7.914;2022-08-02T04:39:18;100957.03;;;14.92;80.20
64644;BME280;51056;50.330;7.914;2022-08-02T04:42:23;100951.38;;;14.98;79.85
64644;BME280;51056;50.330;7.914;2022-08-02T04:45:29;100945.47;;;14.95;80.12
64644;BME280;51056;50.330;7.914;2022-08-02T04:48:32;100953.44;;;14.93;80.54
64644;BME280;51056;50.330;7.914;2022-08-02T04:51:38;100958.94;;;14.90;80.62
64644;BME280;51056;50.330;7.914;2022-08-02T04:54:41;100952.41;;;14.96;80.83
64644;BME280;51056;50.330;7.914;2022-08-02T04:57:45;100954.41;;;14.92;81.16
64644;BME280;51056;50.330;7.914;2022-08-02T05:00:57;100959.84;;;15.03;80.29
64644;BME280;51056;50.330;7.914;2022-08-02T05:04:00;100959.00;;;14.88;81.16
64644;BME280;51056;50.330;7.914;2022-08-02T05:07:04;100961.72;;;15.01;80.93
64644;BME280;51056;50.330;7.914;2022-08-02T05:10:08;100963.59;;;14.99;80.72
64644;BME280;51056;50.330;7.914;2022-08-02T05:13:12;100957.72;;;15.08;80.32
64644;BME280;51056;50.330;7.914;2022-08-02T05:16:15;100964.38;;;15.28;79.34
64644;BME280;51056;50.330;7.914;2022-08-02T05:19:19;100975.09;;;15.25;79.35
64644;BME280;51056;50.330;7.914;2022-08-02T05:22:22;100967.78;;;15.43;78.47
64644;BME280;51056;50.330;7.914;2022-08-02T05:25:26;100967.19;;;15.52;78.32
64644;BME280;51056;50.330;7.914;2022-08-02T05:28:29;100962.53;;;15.70;77.76
64644;BME280;51056;50.330;7.914;2022-08-02T05:31:32;100959.56;;;15.75;76.59
64644;BME280;51056;50.330;7.914;2022-08-02T05:34:36;100964.97;;;15.86;75.99
64644;BME280;51056;50.330;7.914;2022-08-02T05:37:41;100964.34;;;15.83;76.28
64644;BME280;51056;50.330;7.914;2022-08-02T05:40:45;100970.25;;;15.86;76.48
64644;BME280;51056;50.330;7.914;2022-08-02T05:43:48;100963.94;;;15.62;77.71
64644;BME280;51056;50.330;7.914;2022-08-02T05:46:51;100974.56;;;15.87;76.70
64644;BME280;51056;50.330;7.914;2022-08-02T05:49:58;100981.84;;;15.84;77.59
64644;BME280;51056;50.330;7.914;2022-08-02T05:53:04;100976.75;;;15.68;78.46
64644;BME280;51056;50.330;7.914;2022-08-02T05:56:30;100970.66;;;15.80;77.77
64644;BME280;51056;50.330;7.914;2022-08-02T05:59:38;100979.22;;;15.96;77.04
64644;BME280;51056;50.330;7.914;2022-08-02T06:03:14;100990.09;;;16.04;76.95
64644;BME280;51056;50.330;7.914;2022-08-02T06:06:21;100980.06;;;16.10;76.69
64644;BME280;51056;50.330;7.914;2022-08-02T06:09:28;100984.31;;;16.25;75.87
64644;BME280;51056;50.330;7.914;2022-08-02T06:12:35;100979.97;;;16.24;76.34
64644;BME280;51056;50.330;7.914;2022-08-02T06:15:41;100984.50;;;16.47;75.26
64644;BME280;51056;50.330;7.914;2022-08-02T06:18:44;100977.63;;;16.58;75.20
64644;BME280;51056;50.330;7.914;2022-08-02T06:21:48;100975.34;;;16.40;76.83
64644;BME280;51056;50.330;7.914;2022-08-02T06:24:53;100972.78;;;16.26;78.29
64644;BME280;51056;50.330;7.914;2022-08-02T06:28:08;100982.59;;;16.49;77.19
64644;BME280;51056;50.330;7.914;2022-08-02T06:31:13;100983.75;;;16.45;77.85
64644;BME280;51056;50.330;7.914;2022-08-02T06:34:18;100980.28;;;16.58;77.66
64644;BME280;51056;50.330;7.914;2022-08-02T06:38:00;100963.03;;;16.65;78.52
64644;BME280;51056;50.330;7.914;2022-08-02T06:41:06;100957.09;;;16.74;78.35
64644;BME280;51056;50.330;7.914;2022-08-02T06:44:09;100959.88;;;16.85;77.93
64644;BME280;51056;50.330;7.914;2022-08-02T06:47:13;100956.41;;;17.09;77.33
64644;BME280;51056;50.330;7.914;2022-08-02T06:50:17;100958.66;;;17.26;76.82
64644;BME280;51056;50.330;7.914;2022-08-02T06:53:20;100954.78;;;17.43;75.70
64644;BME280;51056;50.330;7.914;2022-08-02T06:56:24;100954.69;;;17.56;75.17
64644;BME280;51056;50.330;7.914;2022-08-02T06:59:27;100953.56;;;17.71;74.76
64644;BME280;51056;50.330;7.914;2022-08-02T07:02:31;100953.97;;;17.78;74.62
64644;BME280;51056;50.330;7.914;2022-08-02T07:05:34;100943.28;;;17.91;74.98
64644;BME280;51056;50.330;7.914;2022-08-02T07:08:38;100954.13;;;17.99;74.69
64644;BME280;51056;50.330;7.914;2022-08-02T07:11:41;100942.09;;;18.06;74.35
64644;BME280;51056;50.330;7.914;2022-08-02T07:14:44;100938.25;;;18.21;74.29
64644;BME280;51056;50.330;7.914;2022-08-02T07:17:48;100939.25;;;18.20;74.21
64644;BME280;51056;50.330;7.914;2022-08-02T07:20:52;100932.63;;;18.37;73.67
64644;BME280;51056;50.330;7.914;2022-08-02T07:23:58;100942.00;;;18.52;73.24
64644;BME280;51056;50.330;7.914;2022-08-02T07:27:01;100934.91;;;18.64;72.54
64644;BME280;51056;50.330;7.914;2022-08-02T07:30:05;100920.97;;;18.73;72.35
64644;BME280;51056;50.330;7.914;2022-08-02T07:33:09;100928.53;;;18.89;71.68
64644;BME280;51056;50.330;7.914;2022-08-02T07:36:12;100920.41;;;19.02;71.89
64644;BME280;51056;50.330;7.914;2022-08-02T07:39:16;100921.19;;;19.14;71.49
64644;BME280;51056;50.330;7.914;2022-08-02T07:42:19;100915.47;;;19.29;71.14
64644;BME280;51056;50.330;7.914;2022-08-02T07:45:23;100908.31;;;19.41;70.10
64644;BME280;51056;50.330;7.914;2022-08-02T07:48:27;100911.56;;;19.45;69.90
64644;BME280;51056;50.330;7.914;2022-08-02T07:51:30;100906.31;;;19.55;69.16
64644;BME280;51056;50.330;7.914;2022-08-02T07:54:35;100888.81;;;19.63;68.63
64644;BME280;51056;50.330;7.914;2022-08-02T07:57:39;100888.63;;;19.76;67.88
64644;BME280;51056;50.330;7.914;2022-08-02T08:00:45;100896.91;;;19.83;66.84
64644;BME280;51056;50.330;7.914;2022-08-02T08:03:48;100899.34;;;19.95;65.53
64644;BME280;51056;50.330;7.914;2022-08-02T08:06:52;100905.59;;;20.15;63.62
64644;BME280;51056;50.330;7.914;2022-08-02T08:09:56;100905.63;;;20.25;63.54
64644;BME280;51056;50.330;7.914;2022-08-02T08:13:01;100897.16;;;20.41;61.74
64644;BME280;51056;50.330;7.914;2022-08-02T08:16:04;100897.59;;;20.46;57.96
64644;BME280;51056;50.330;7.914;2022-08-02T08:19:08;100898.63;;;20.55;55.14
64644;BME280;51056;50.330;7.914;2022-08-02T08:22:11;100883.97;;;20.60;55.98
64644;BME280;51056;50.330;7.914;2022-08-02T08:25:16;100881.22;;;20.72;55.19
64644;BME280;51056;50.330;7.914;2022-08-02T08:28:20;100883.72;;;20.83;57.29
64644;BME280;51056;50.330;7.914;2022-08-02T08:31:24;100879.28;;;20.93;56.01
64644;BME280;51056;50.330;7.914;2022-08-02T08:34:27;100880.41;;;21.10;53.73
64644;BME280;51056;50.330;7.914;2022-08-02T08:37:36;100871.72;;;21.27;51.62
64644;BME280;51056;50.330;7.914;2022-08-02T08:40:40;100869.91;;;21.47;50.45
64644;BME280;51056;50.330;7.914;2022-08-02T08:43:45;100867.25;;;21.57;51.03
64644;BME280;51056;50.330;7.914;2022-08-02T08:46:49;100868.00;;;21.87;50.90
64644;BME280;51056;50.330;7.914;2022-08-02T08:49:53;100866.25;;;22.05;51.90
64644;BME280;51056;50.330;7.914;2022-08-02T08:53:04;100868.47;;;22.10;51.67
64644;BME280;51056;50.330;7.914;2022-08-02T08:56:11;100872.38;;;22.15;50.04
64644;BME280;51056;50.330;7.914;2022-08-02T08:59:14;100869.84;;;22.14;50.12
64644;BME280;51056;50.330;7.914;2022-08-02T09:02:17;100861.16;;;22.21;50.06
64644;BME280;51056;50.330;7.914;2022-08-02T09:05:21;100855.53;;;22.52;48.38
64644;BME280;51056;50.330;7.914;2022-08-02T09:08:25;100861.78;;;22.61;49.73
64644;BME280;51056;50.330;7.914;2022-08-02T09:11:28;100854.50;;;22.63;47.95
64644;BME280;51056;50.330;7.914;2022-08-02T09:14:31;100855.25;;;22.73;48.55
64644;BME280;51056;50.330;7.914;2022-08-02T09:17:51;100852.03;;;22.51;50.21
64644;BME280;51056;50.330;7.914;2022-08-02T09:21:01;100848.22;;;22.54;49.68
64644;BME280;51056;50.330;7.914;2022-08-02T09:24:14;100857.66;;;23.12;43.70
64644;BME280;51056;50.330;7.914;2022-08-02T09:27:20;100846.19;;;23.19;41.17
64644;BME280;51056;50.330;7.914;2022-08-02T09:30:27;100851.09;;;23.24;40.76
64644;BME280;51056;50.330;7.914;2022-08-02T09:33:31;100849.78;;;23.28;40.83
64644;BME280;51056;50.330;7.914;2022-08-02T09:36:41;100848.47;;;23.32;41.24
64644;BME280;51056;50.330;7.914;2022-08-02T09:39:45;100852.22;;;23.21;41.27
64644;BME280;51056;50.330;7.914;2022-08-02T09:42:57;100842.69;;;23.63;40.83
64644;BME280;51056;50.330;7.914;2022-08-02T09:46:17;100835.69;;;23.36;42.79
64644;BME280;51056;50.330;7.914;2022-08-02T09:49:20;100822.91;;;24.00;40.74
64644;BME280;51056;50.330;7.914;2022-08-02T09:52:28;100824.50;;;23.84;42.55
64644;BME280;51056;50.330;7.914;2022-08-02T09:55:33;100827.81;;;24.21;40.44
64644;BME280;51056;50.330;7.914;2022-08-02T09:58:37;100825.66;;;24.24;40.37
64644;BME280;51056;50.330;7.914;2022-08-02T10:01:43;100829.75;;;24.45;38.55
64644;BME280;51056;50.330;7.914;2022-08-02T10:04:46;100830.66;;;24.27;39.12
64644;BME280;51056;50.330;7.914;2022-08-02T10:07:50;100826.94;;;24.12;40.39
64644;BME280;51056;50.330;7.914;2022-08-02T10:10:54;100817.44;;;24.09;39.50
64644;BME280;51056;50.330;7.914;2022-08-02T10:14:09;100820.03;;;24.35;41.22
64644;BME280;51056;50.330;7.914;2022-08-02T10:17:14;100815.44;;;24.54;39.72
64644;BME280;51056;50.330;7.914;2022-08-02T10:20:17;100808.38;;;24.53;40.25
64644;BME280;51056;50.330;7.914;2022-08-02T10:23:24;100803.75;;;24.79;39.57
64644;BME280;51056;50.330;7.914;2022-08-02T10:26:30;100799.25;;;24.80;41.34
64644;BME280;51056;50.330;7.914;2022-08-02T10:29:36;100806.09;;;25.23;39.21
64644;BME280;51056;50.330;7.914;2022-08-02T10:32:42;100803.25;;;25.49;38.22
64644;BME280;51056;50.330;7.914;2022-08-02T10:35:49;100799.06;;;25.39;37.92
64644;BME280;51056;50.330;7.914;2022-08-02T10:38:55;100796.41;;;25.22;38.55
64644;BME280;51056;50.330;7.914;2022-08-02T10:42:00;100787.38;;;24.91;40.29
64644;BME280;51056;50.330;7.914;2022-08-02T10:45:11;100790.88;;;24.99;39.51
64644;BME280;51056;50.330;7.914;2022-08-02T10:48:17;100796.94;;;25.18;37.82
64644;BME280;51056;50.330;7.914;2022-08-02T10:51:20;100777.88;;;25.21;37.74
64644;BME280;51056;50.330;7.914;2022-08-02T10:54:31;100773.66;;;25.10;39.11
64644;BME280;51056;50.330;7.914;2022-08-02T10:57:35;100767.31;;;25.03;39.00
64644;BME280;51056;50.330;7.914;2022-08-02T11:00:39;100767.31;;;25.11;39.93
64644;BME280;51056;50.330;7.914;2022-08-02T11:03:43;100766.31;;;25.20;40.28
64644;BME280;51056;50.330;7.914;2022-08-02T11:10:28;100775.34;;;25.19;38.85
64644;BME280;51056;50.330;7.914;2022-08-02T11:14:10;100767.97;;;25.29;37.97
64644;BME280;51056;50.330;7.914;2022-08-02T11:17:17;100771.47;;;25.38;37.04
64644;BME280;51056;50.330;7.914;2022-08-02T11:20:22;100758.94;;;25.22;37.57
64644;BME280;51056;50.330;7.914;2022-08-02T11:23:37;100756.88;;;25.49;37.35
64644;BME280;51056;50.330;7.914;2022-08-02T11:26:42;100754.66;;;25.61;37.50
64644;BME280;51056;50.330;7.914;2022-08-02T11:29:47;100757.00;;;25.72;36.78
64644;BME280;51056;50.330;7.914;2022-08-02T11:32:57;100736.28;;;25.58;36.92
64644;BME280;51056;50.330;7.914;2022-08-02T11:36:04;100745.97;;;25.59;36.86
64644;BME280;51056;50.330;7.914;2022-08-02T11:39:09;100737.09;;;26.06;36.66
64644;BME280;51056;50.330;7.914;2022-08-02T11:42:13;100738.63;;;26.00;37.04
64644;BME280;51056;50.330;7.914;2022-08-02T11:45:24;100732.28;;;26.01;36.87
64644;BME280;51056;50.330;7.914;2022-08-02T11:48:46;100740.47;;;26.00;35.79
64644;BME280;51056;50.330;7.914;2022-08-02T11:52:04;100729.97;;;25.90;36.03
64644;BME280;51056;50.330;7.914;2022-08-02T11:55:09;100721.38;;;26.03;36.75
64644;BME280;51056;50.330;7.914;2022-08-02T11:58:38;100719.59;;;26.49;34.96
64644;BME280;51056;50.330;7.914;2022-08-02T12:01:43;100721.13;;;26.66;35.22
64644;BME280;51056;50.330;7.914;2022-08-02T12:04:59;100714.72;;;27.05;34.41
64644;BME280;51056;50.330;7.914;2022-08-02T12:08:05;100722.94;;;26.89;34.53
64644;BME280;51056;50.330;7.914;2022-08-02T12:11:18;100717.25;;;26.69;35.26
64644;BME280;51056;50.330;7.914;2022-08-02T12:14:26;100707.66;;;26.75;35.01
64644;BME280;51056;50.330;7.914;2022-08-02T12:17:34;100707.00;;;26.50;34.70
64644;BME280;51056;50.330;7.914;2022-08-02T12:20:57;100701.88;;;26.63;35.28
64644;BME280;51056;50.330;7.914;2022-08-02T12:24:00;100696.03;;;26.59;34.47
64644;BME280;51056;50.330;7.914;2022-08-02T12:27:06;100693.09;;;26.69;34.82
64644;BME280;51056;50.330;7.914;2022-08-02T12:30:12;100697.53;;;26.77;34.97
64644;BME280;51056;50.330;7.914;2022-08-02T12:33:19;100698.16;;;26.87;34.96
64644;BME280;51056;50.330;7.914;2022-08-02T12:36:23;100703.75;;;27.30;33.11
64644;BME280;51056;50.330;7.914;2022-08-02T12:39:45;100713.56;;;27.52;32.56
64644;BME280;51056;50.330;7.914;2022-08-02T12:42:57;100705.47;;;27.82;31.18
64644;BME280;51056;50.330;7.914;2022-08-02T12:46:30;100706.75;;;28.01;31.22
64644;BME280;51056;50.330;7.914;2022-08-02T12:53:31;100696.53;;;27.16;34.50
64644;BME280;51056;50.330;7.914;2022-08-02T12:56:38;100688.44;;;27.90;33.31
64644;BME280;51056;50.330;7.914;2022-08-02T12:59:47;100682.44;;;28.09;32.87
64644;BME280;51056;50.330;7.914;2022-08-02T13:02:51;100677.91;;;28.52;30.11
64644;BME280;51056;50.330;7.914;2022-08-02T13:05:56;100676.47;;;28.78;29.37
64644;BME280;51056;50.330;7.914;2022-08-02T13:09:01;100666.41;;;28.93;29.09
64644;BME280;51056;50.330;7.914;2022-08-02T13:12:13;100662.94;;;29.00;29.58
64644;BME280;51056;50.330;7.914;2022-08-02T13:15:17;100663.13;;;29.26;29.90
64644;BME280;51056;50.330;7.914;2022-08-02T13:18:21;100666.44;;;29.28;29.12
64644;BME280;51056;50.330;7.914;2022-08-02T13:21:24;100661.34;;;29.47;29.00
64644;BME280;51056;50.330;7.914;2022-08-02T13:24:28;100659.09;;;29.57;29.67
64644;BME280;51056;50.330;7.914;2022-08-02T13:27:31;100657.75;;;29.68;29.45
64644;BME280;51056;50.330;7.914;2022-08-02T13:30:36;100657.59;;;29.96;29.06
64644;BME280;51056;50.330;7.914;2022-08-02T13:33:40;100640.03;;;30.20;28.04
64644;BME280;51056;50.330;7.914;2022-08-02T13:36:44;100636.53;;;30.46;27.61
64644;BME280;51056;50.330;7.914;2022-08-02T13:39:47;100641.06;;;30.65;26.89
64644;BME280;51056;50.330;7.914;2022-08-02T13:42:50;100635.66;;;30.92;27.64
64644;BME280;51056;50.330;7.914;2022-08-02T13:45:54;100642.91;;;30.98;26.25
64644;BME280;51056;50.330;7.914;2022-08-02T13:48:57;100636.03;;;31.09;26.64
64644;BME280;51056;50.330;7.914;2022-08-02T13:52:01;100632.47;;;31.21;25.80
64644;BME280;51056;50.330;7.914;2022-08-02T13:55:05;100628.75;;;31.67;26.04
64644;BME280;51056;50.330;7.914;2022-08-02T13:58:09;100627.88;;;32.37;25.26
64644;BME280;51056;50.330;7.914;2022-08-02T14:01:13;100617.03;;;32.87;24.47
64644;BME280;51056;50.330;7.914;2022-08-02T14:04:17;100612.25;;;33.86;24.29
64644;BME280;51056;50.330;7.914;2022-08-02T14:07:20;100609.91;;;34.67;22.42
64644;BME280;51056;50.330;7.914;2022-08-02T14:10:25;100601.03;;;34.71;22.52
64644;BME280;51056;50.330;7.914;2022-08-02T14:13:28;100593.84;;;35.86;21.55
64644;BME280;51056;50.330;7.914;2022-08-02T14:16:31;100594.13;;;37.13;19.38
64644;BME280;51056;50.330;7.914;2022-08-02T14:19:34;100588.34;;;36.15;20.22
64644;BME280;51056;50.330;7.914;2022-08-02T14:22:38;100599.75;;;34.74;21.01
64644;BME280;51056;50.330;7.914;2022-08-02T14:25:42;100604.38;;;33.54;22.87
64644;BME280;51056;50.330;7.914;2022-08-02T14:28:46;100597.88;;;33.55;22.85
64644;BME280;51056;50.330;7.914;2022-08-02T14:31:50;100594.19;;;32.08;24.31
64644;BME280;51056;50.330;7.914;2022-08-02T14:34:54;100588.91;;;34.27;22.47
64644;BME280;51056;50.330;7.914;2022-08-02T14:38:37;100588.31;;;34.60;21.46
64644;BME280;51056;50.330;7.914;2022-08-02T14:41:47;100599.09;;;32.86;23.36
64644;BME280;51056;50.330;7.914;2022-08-02T14:44:51;100596.91;;;34.45;21.51
64644;BME280;51056;50.330;7.914;2022-08-02T14:47:55;100590.84;;;35.14;20.39
64644;BME280;51056;50.330;7.914;2022-08-02T14:50:58;100589.19;;;35.01;20.62
64644;BME280;51056;50.330;7.914;2022-08-02T14:54:03;100588.88;;;33.85;22.06
64644;BME280;51056;50.330;7.914;2022-08-02T14:57:07;100587.28;;;33.36;22.26
64644;BME280;51056;50.330;7.914;2022-08-02T15:00:12;100578.13;;;33.67;22.56
64644;BME280;51056;50.330;7.914;2022-08-02T15:03:16;100580.53;;;33.26;24.57
64644;BME280;51056;50.330;7.914;2022-08-02T15:06:22;100578.06;;;32.45;23.84
64644;BME280;51056;50.330;7.914;2022-08-02T15:09:26;100578.97;;;32.13;24.28
64644;BME280;51056;50.330;7.914;2022-08-02T15:12:29;100582.00;;;31.60;24.98
64644;BME280;51056;50.330;7.914;2022-08-02T15:15:33;100584.19;;;30.67;25.85
64644;BME280;51056;50.330;7.914;2022-08-02T15:18:36;100577.75;;;30.68;25.89
64644;BME280;51056;50.330;7.914;2022-08-02T15:21:39;100571.75;;;30.52;26.94
64644;BME280;51056;50.330;7.914;2022-08-02T15:24:43;100583.34;;;30.66;26.88
64644;BME280;51056;50.330;7.914;2022-08-02T15:27:46;100567.47;;;31.93;24.85
64644;BME280;51056;50.330;7.914;2022-08-02T15:30:49;100562.69;;;32.63;23.74
64644;BME280;51056;50.330;7.914;2022-08-02T15:33:53;100567.38;;;34.49;21.67
64644;BME280;51056;50.330;7.914;2022-08-02T15:36:56;100564.56;;;35.20;20.75
64644;BME280;51056;50.330;7.914;2022-08-02T15:40:00;100566.75;;;34.00;22.44
64644;BME280;51056;50.330;7.914;2022-08-02T15:43:03;100556.91;;;34.64;21.39
64644;BME280;51056;50.330;7.914;2022-08-02T15:46:07;100552.13;;;34.95;21.06
64644;BME280;51056;50.330;7.914;2022-08-02T15:49:10;100561.56;;;35.04;21.74
64644;BME280;51056;50.330;7.914;2022-08-02T15:52:13;100557.56;;;34.95;20.99
64644;BME280;51056;50.330;7.914;2022-08-02T15:55:16;100554.00;;;35.35;20.81
64644;BME280;51056;50.330;7.914;2022-08-02T15:58:20;100563.41;;;34.28;21.73
64644;BME280;51056;50.330;7.914;2022-08-02T16:01:23;100565.38;;;34.68;21.24
64644;BME280;51056;50.330;7.914;2022-08-02T16:04:28;100559.53;;;33.82;21.85
64644;BME280;51056;50.330;7.914;2022-08-02T16:07:31;100561.19;;;35.41;20.91
64644;BME280;51056;50.330;7.914;2022-08-02T16:10:35;100553.72;;;34.56;21.30
64644;BME280;51056;50.330;7.914;2022-08-02T16:13:38;100545.78;;;35.75;20.60
64644;BME280;51056;50.330;7.914;2022-08-02T16:16:57;100552.69;;;35.37;21.06
64644;BME280;51056;50.330;7.914;2022-08-02T16:20:00;100548.44;;;33.84;22.63
64644;BME280;51056;50.330;7.914;2022-08-02T16:23:04;100553.44;;;32.89;24.16
64644;BME280;51056;50.330;7.914;2022-08-02T16:26:07;100541.63;;;33.21;23.96